createdAt,value
2022-08-02T00:01:30.268Z,18.17
2022-08-02T00:03:47.286Z,18.19
2022-08-02T00:06:04.368Z,18.13
2022-08-02T00:08:21.416Z,18.08
2022-08-02T00:10:38.786Z,18.05
2022-08-02T00:12:56.037Z,17.98
2022-08-02T00:15:15.933Z,17.91
2022-08-02T00:17:33.613Z,17.90
2022-08-02T00:19:50.648Z,17.91
2022-08-02T00:22:08.239Z,17.88
2022-08-02T00:24:30.345Z,17.82
2022-08-02T00:26:47.967Z,17.73
2022-08-02T00:29:06.386Z,17.69
2022-08-02T00:31:23.420Z,17.63
2022-08-02T00:34:26.622Z,17.58
2022-08-02T00:36:18.273Z,17.54
2022-08-02T00:38:36.142Z,17.52
2022-08-02T00:40:58.045Z,17.47
2022-08-02T00:43:15.307Z,17.55
2022-08-02T00:46:02.356Z,17.44
2022-08-02T00:48:10.167Z,17.38
2022-08-02T00:50:27.610Z,17.32
2022-08-02T00:52:44.557Z,17.25
2022-08-02T00:55:02.124Z,17.22
2022-08-02T00:57:19.195Z,17.20
2022-08-02T00:59:36.489Z,17.16
2022-08-02T01:01:57.898Z,17.14
2022-08-02T01:04:15.263Z,17.10
2022-08-02T01:06:44.842Z,17.03
2022-08-02T01:09:01.859Z,17.03
2022-08-02T01:11:19.881Z,17.04
2022-08-02T01:13:36.819Z,16.99
2022-08-02T01:15:55.042Z,16.94
2022-08-02T01:18:12.977Z,16.91
2022-08-02T01:20:30.386Z,16.82
2022-08-02T01:23:03.222Z,16.79
2022-08-02T01:25:20.663Z,16.82
2022-08-02T01:27:38.901Z,16.87
2022-08-02T01:29:55.967Z,16.86
2022-08-02T01:32:13.379Z,16.78
2022-08-02T01:34:33.995Z,16.77
2022-08-02T01:36:52.350Z,16.75
2022-08-02T01:39:10.386Z,16.74
2022-08-02T01:41:27.663Z,16.65
2022-08-02T01:43:44.670Z,16.59
2022-08-02T01:46:01.972Z,16.57
2022-08-02T01:48:19.009Z,16.59
2022-08-02T01:50:36.298Z,16.60
2022-08-02T01:52:53.968Z,16.57
2022-08-02T01:55:18.531Z,16.50
2022-08-02T01:57:41.783Z,16.50
2022-08-02T01:59:59.173Z,16.58
2022-08-02T02:02:19.014Z,16.56
2022-08-02T02:04:37.477Z,16.46
2022-08-02T02:06:54.400Z,16.49
2022-08-02T02:09:11.397Z,16.42
2022-08-02T02:12:11.716Z,16.39
2022-08-02T02:14:06.668Z,16.36
2022-08-02T02:16:23.972Z,16.32
2022-08-02T02:18:40.983Z,16.29
2022-08-02T02:20:57.977Z,16.26
2022-08-02T02:23:14.926Z,16.27
2022-08-02T02:25:35.799Z,16.24
2022-08-02T02:27:53.851Z,16.23
2022-08-02T02:30:11.127Z,16.17
2022-08-02T02:32:28.077Z,16.15
2022-08-02T02:34:45.075Z,16.09
2022-08-02T02:37:03.115Z,16.11
2022-08-02T02:39:20.394Z,16.17
2022-08-02T02:41:37.641Z,16.20
2022-08-02T02:43:54.673Z,16.15
2022-08-02T02:46:11.664Z,16.15
2022-08-02T02:48:29.886Z,16.09
2022-08-02T02:50:47.110Z,16.05
2022-08-02T02:53:04.177Z,16.06
2022-08-02T02:55:22.438Z,16.00
2022-08-02T02:57:39.403Z,15.94
2022-08-02T02:59:56.432Z,15.92
2022-08-02T03:02:13.868Z,15.90
2022-08-02T03:04:55.753Z,15.86
2022-08-02T03:07:08.706Z,15.83
2022-08-02T03:09:26.688Z,15.77
2022-08-02T03:11:43.711Z,15.80
2022-08-02T03:14:02.004Z,15.79
2022-08-02T03:16:18.955Z,15.75
2022-08-02T03:18:35.904Z,15.80
2022-08-02T03:20:52.936Z,15.82
2022-08-02T03:23:10.247Z,15.84
2022-08-02T03:25:27.289Z,15.82
2022-08-02T03:27:44.514Z,15.79
2022-08-02T03:30:01.641Z,15.74
2022-08-02T03:32:18.855Z,15.77
2022-08-02T03:34:35.910Z,15.75
2022-08-02T03:36:52.845Z,15.70
2022-08-02T03:39:09.911Z,15.69
2022-08-02T03:41:27.124Z,15.66
2022-08-02T03:43:44.411Z,15.63
2022-08-02T03:46:01.672Z,15.59
2022-08-02T03:48:34.078Z,15.57
2022-08-02T03:50:54.825Z,15.55
2022-08-02T03:53:20.013Z,15.60
2022-08-02T03:55:37.360Z,15.60
2022-08-02T03:57:55.393Z,15.57
2022-08-02T04:00:12.963Z,15.56
2022-08-02T04:02:30.210Z,15.54
2022-08-02T04:04:47.526Z,15.54
2022-08-02T04:07:07.501Z,15.52
2022-08-02T04:09:25.012Z,15.51
2022-08-02T04:11:42.324Z,15.47
2022-08-02T04:13:59.578Z,15.46
2022-08-02T04:16:17.399Z,15.44
2022-08-02T04:18:35.746Z,15.38
2022-08-02T04:20:52.702Z,15.35
2022-08-02T04:23:11.060Z,15.36
2022-08-02T04:25:35.516Z,15.32
2022-08-02T04:28:17.333Z,15.30
2022-08-02T04:30:34.965Z,15.27
2022-08-02T04:32:53.008Z,15.26
2022-08-02T04:35:25.275Z,15.25
2022-08-02T04:38:08.971Z,15.25
2022-08-02T04:40:20.246Z,15.27
2022-08-02T04:42:37.477Z,15.30
2022-08-02T04:44:54.549Z,15.33
2022-08-02T04:47:12.573Z,15.37
2022-08-02T04:49:29.686Z,15.42
2022-08-02T04:51:46.974Z,15.46
2022-08-02T04:54:09.216Z,15.49
2022-08-02T04:56:27.416Z,15.49
2022-08-02T04:58:44.656Z,15.46
2022-08-02T05:01:01.806Z,15.44
2022-08-02T05:03:19.152Z,15.51
2022-08-02T05:05:36.001Z,15.51
2022-08-02T05:07:53.317Z,15.52
2022-08-02T05:10:10.642Z,15.54
2022-08-02T05:12:27.655Z,15.58
2022-08-02T05:14:44.904Z,15.60
2022-08-02T05:17:01.903Z,15.68
2022-08-02T05:19:18.883Z,15.74
2022-08-02T05:21:36.444Z,15.80
2022-08-02T05:23:53.403Z,15.79
2022-08-02T05:26:10.412Z,15.89
2022-08-02T05:28:27.437Z,16.00
2022-08-02T05:30:44.485Z,16.07
2022-08-02T05:33:01.555Z,16.11
2022-08-02T05:35:19.168Z,16.17
2022-08-02T05:37:36.420Z,16.19
2022-08-02T05:39:55.939Z,16.24
2022-08-02T05:42:13.560Z,16.38
2022-08-02T05:44:31.787Z,16.53
2022-08-02T05:46:50.424Z,16.60
2022-08-02T05:49:07.700Z,16.62
2022-08-02T05:51:25.069Z,16.65
2022-08-02T05:53:45.395Z,16.69
2022-08-02T05:56:05.403Z,16.74
2022-08-02T05:58:26.751Z,16.74
2022-08-02T06:00:44.481Z,16.72
2022-08-02T06:03:01.537Z,16.67
2022-08-02T06:05:18.509Z,16.73
2022-08-02T06:07:36.828Z,16.84
2022-08-02T06:09:53.914Z,16.96
2022-08-02T06:12:11.405Z,17.13
2022-08-02T06:14:30.611Z,17.22
2022-08-02T06:16:47.919Z,17.33
2022-08-02T06:19:04.941Z,17.54
2022-08-02T06:22:33.203Z,17.65
2022-08-02T06:23:59.649Z,17.82
2022-08-02T06:26:16.845Z,18.02
2022-08-02T06:28:34.920Z,18.20
2022-08-02T06:30:51.954Z,18.38
2022-08-02T06:33:10.252Z,18.58
2022-08-02T06:35:27.298Z,18.76
2022-08-02T06:37:44.667Z,18.83
2022-08-02T06:40:02.054Z,18.86
2022-08-02T06:42:26.965Z,18.88
2022-08-02T06:44:49.939Z,18.93
2022-08-02T06:47:10.871Z,19.02
2022-08-02T06:49:52.569Z,19.17
2022-08-02T06:52:06.333Z,19.32
2022-08-02T06:54:23.307Z,19.44
2022-08-02T06:56:40.474Z,19.62
2022-08-02T06:59:02.136Z,19.80
2022-08-02T07:01:22.640Z,19.98
2022-08-02T07:03:41.833Z,20.14
2022-08-02T07:05:58.890Z,20.27
2022-08-02T07:08:16.294Z,20.49
2022-08-02T07:10:33.646Z,20.64
2022-08-02T07:12:50.640Z,20.82
2022-08-02T07:15:07.664Z,20.96
2022-08-02T07:17:24.942Z,21.04
2022-08-02T07:19:42.241Z,21.24
2022-08-02T07:22:01.728Z,21.32
2022-08-02T07:24:19.098Z,21.50
2022-08-02T07:26:49.637Z,21.60
2022-08-02T07:29:13.055Z,21.83
2022-08-02T07:31:30.325Z,21.94
2022-08-02T07:33:47.412Z,22.06
2022-08-02T07:36:04.705Z,22.24
2022-08-02T07:38:22.533Z,22.41
2022-08-02T07:40:40.046Z,22.57
2022-08-02T07:43:03.887Z,22.75
2022-08-02T07:45:21.567Z,22.86
2022-08-02T07:47:43.268Z,22.97
2022-08-02T07:50:02.939Z,23.14
2022-08-02T07:52:20.370Z,23.27
2022-08-02T07:54:37.443Z,23.39
2022-08-02T07:56:58.336Z,23.57
2022-08-02T07:59:17.037Z,23.70
2022-08-02T08:01:34.354Z,23.80
2022-08-02T08:03:53.689Z,23.95
2022-08-02T08:06:13.951Z,24.05
2022-08-02T08:08:32.019Z,24.20
2022-08-02T08:10:50.168Z,24.42
2022-08-02T08:13:08.243Z,24.50
2022-08-02T08:15:25.563Z,24.58
2022-08-02T08:17:42.581Z,24.70
2022-08-02T08:20:00.095Z,24.77
2022-08-02T08:22:18.142Z,24.87
2022-08-02T08:24:35.060Z,24.99
2022-08-02T08:26:52.238Z,25.16
2022-08-02T08:29:12.711Z,25.16
2022-08-02T08:31:30.369Z,25.24
2022-08-02T08:33:47.399Z,25.34
2022-08-02T08:36:06.821Z,25.40
2022-08-02T08:38:24.084Z,25.62
2022-08-02T08:40:43.381Z,25.66
2022-08-02T08:43:00.498Z,25.71
2022-08-02T08:45:17.769Z,25.96
2022-08-02T08:47:35.899Z,25.87
2022-08-02T08:49:53.512Z,26.00
2022-08-02T08:52:11.823Z,26.18
2022-08-02T08:54:29.324Z,26.35
2022-08-02T08:56:47.351Z,26.39
2022-08-02T08:59:05.145Z,26.54
2022-08-02T09:01:22.437Z,26.63
2022-08-02T09:03:39.568Z,26.67
2022-08-02T09:05:57.848Z,26.78
2022-08-02T09:08:17.059Z,26.77
2022-08-02T09:10:34.229Z,26.88
2022-08-02T09:12:51.168Z,26.81
2022-08-02T09:15:08.962Z,26.89
2022-08-02T09:17:27.981Z,27.08
2022-08-02T09:19:46.534Z,27.21
2022-08-02T09:22:04.179Z,27.36
2022-08-02T09:24:21.412Z,27.62
2022-08-02T09:26:38.763Z,27.69
2022-08-02T09:28:55.990Z,27.82
2022-08-02T09:31:14.281Z,28.06
2022-08-02T09:33:32.549Z,28.05
2022-08-02T09:36:07.147Z,28.26
2022-08-02T09:38:25.978Z,28.11
2022-08-02T09:40:43.438Z,28.15
2022-08-02T09:43:00.872Z,27.94
2022-08-02T09:45:17.913Z,27.84
2022-08-02T09:47:37.562Z,28.03
2022-08-02T09:49:54.700Z,28.21
2022-08-02T09:52:12.659Z,28.33
2022-08-02T09:54:30.750Z,28.28
2022-08-02T09:56:48.682Z,28.07
2022-08-02T09:59:06.138Z,27.96
2022-08-02T10:01:26.637Z,27.64
2022-08-02T10:03:54.707Z,27.24
2022-08-02T10:06:11.931Z,27.03
2022-08-02T10:08:29.252Z,27.05
2022-08-02T10:10:49.625Z,26.86
2022-08-02T10:13:08.725Z,26.99
2022-08-02T10:15:29.028Z,26.77
2022-08-02T10:17:45.968Z,26.71
2022-08-02T10:20:05.120Z,26.77
2022-08-02T10:22:22.589Z,26.76
2022-08-02T10:24:39.617Z,26.68
2022-08-02T10:27:04.796Z,26.54
2022-08-02T10:29:21.854Z,26.48
2022-08-02T10:31:38.921Z,26.50
2022-08-02T10:33:55.990Z,26.84
2022-08-02T10:36:13.019Z,27.22
2022-08-02T10:38:30.378Z,27.65
2022-08-02T10:40:47.344Z,28.08
2022-08-02T10:43:04.299Z,28.45
2022-08-02T10:45:21.450Z,28.68
2022-08-02T10:47:38.486Z,28.93
2022-08-02T10:49:55.461Z,29.26
2022-08-02T10:52:12.752Z,29.30
2022-08-02T10:54:30.202Z,29.47
2022-08-02T10:56:47.163Z,29.54
2022-08-02T10:59:04.464Z,29.58
2022-08-02T11:01:21.486Z,29.62
2022-08-02T11:03:40.108Z,29.77
2022-08-02T11:05:57.828Z,29.81
2022-08-02T11:08:15.905Z,29.65
2022-08-02T11:10:33.446Z,29.44
2022-08-02T11:12:53.728Z,29.17
2022-08-02T11:15:10.684Z,29.27
2022-08-02T11:17:27.715Z,29.53
2022-08-02T11:19:44.769Z,29.94
2022-08-02T11:22:02.356Z,30.58
2022-08-02T11:24:20.624Z,30.34
2022-08-02T11:26:40.415Z,30.72
2022-08-02T11:28:58.459Z,30.96
2022-08-02T11:31:16.906Z,30.79
2022-08-02T11:33:33.975Z,30.92
2022-08-02T11:35:53.280Z,31.06
2022-08-02T11:38:10.314Z,31.29
2022-08-02T11:40:32.500Z,31.52
2022-08-02T11:42:52.472Z,31.84
2022-08-02T11:45:10.606Z,31.68
2022-08-02T11:47:39.172Z,31.63
2022-08-02T11:49:56.519Z,31.58
2022-08-02T11:52:14.162Z,31.40
2022-08-02T11:54:35.420Z,31.04
2022-08-02T11:56:54.249Z,30.92
2022-08-02T11:59:14.438Z,30.55
2022-08-02T12:01:35.249Z,30.11
2022-08-02T12:04:02.589Z,30.17
2022-08-02T12:06:20.858Z,29.97
2022-08-02T12:08:38.606Z,30.41
2022-08-02T12:10:56.329Z,30.65
2022-08-02T12:13:14.588Z,30.85
2022-08-02T12:15:31.574Z,30.76
2022-08-02T12:17:49.497Z,30.64
2022-08-02T12:20:06.521Z,30.68
2022-08-02T12:22:24.467Z,30.62
2022-08-02T12:24:45.984Z,30.96
2022-08-02T12:27:04.042Z,31.35
2022-08-02T12:29:56.026Z,30.95
2022-08-02T12:31:58.265Z,31.27
2022-08-02T12:34:16.372Z,31.45
2022-08-02T12:36:33.399Z,31.72
2022-08-02T12:38:50.638Z,31.84
2022-08-02T12:41:30.861Z,31.76
2022-08-02T12:43:44.986Z,31.67
2022-08-02T12:46:02.041Z,31.81
2022-08-02T12:48:19.339Z,31.90
2022-08-02T12:50:39.639Z,32.16
2022-08-02T12:52:56.894Z,32.24
2022-08-02T12:55:14.136Z,31.73
2022-08-02T12:57:32.581Z,31.54
2022-08-02T12:59:49.663Z,31.29
2022-08-02T13:02:07.740Z,30.92
2022-08-02T13:04:25.104Z,30.92
2022-08-02T13:06:45.122Z,30.94
2022-08-02T13:09:04.467Z,30.86
2022-08-02T13:11:21.389Z,30.93
2022-08-02T13:13:38.434Z,30.98
2022-08-02T13:15:55.516Z,31.27
2022-08-02T13:18:16.108Z,31.63
2022-08-02T13:20:34.140Z,31.88
2022-08-02T13:22:53.549Z,32.06
2022-08-02T13:25:10.748Z,32.34
2022-08-02T13:27:30.581Z,32.41
2022-08-02T13:29:47.876Z,32.11
2022-08-02T13:32:04.903Z,32.25
2022-08-02T13:34:21.923Z,32.06
2022-08-02T13:36:40.811Z,31.86
2022-08-02T13:38:57.858Z,32.02
2022-08-02T13:41:14.922Z,32.16
2022-08-02T13:43:52.686Z,32.10
2022-08-02T13:46:10.443Z,32.10
2022-08-02T13:48:27.473Z,32.31
2022-08-02T13:50:44.580Z,32.59
2022-08-02T13:53:03.936Z,32.50
2022-08-02T13:55:20.914Z,32.60
2022-08-02T13:57:37.972Z,32.66
2022-08-02T13:59:59.178Z,32.67
2022-08-02T14:02:17.416Z,32.40
2022-08-02T14:04:35.809Z,32.26
2022-08-02T14:06:52.916Z,32.22
2022-08-02T14:09:15.519Z,32.24
2022-08-02T14:11:34.289Z,32.05
2022-08-02T14:13:51.225Z,32.01
2022-08-02T14:16:08.450Z,32.36
2022-08-02T14:18:25.785Z,32.27
2022-08-02T14:20:43.019Z,32.27
2022-08-02T14:23:00.048Z,32.23
2022-08-02T14:25:17.366Z,32.29
2022-08-02T14:27:39.431Z,32.03
2022-08-02T14:29:57.747Z,31.96
2022-08-02T14:32:15.377Z,31.74
2022-08-02T14:34:32.980Z,31.72
2022-08-02T14:36:53.692Z,31.68
2022-08-02T14:39:11.079Z,31.65
2022-08-02T14:41:29.398Z,31.65
2022-08-02T14:43:46.432Z,31.60
2022-08-02T14:46:03.833Z,31.51
2022-08-02T14:48:20.825Z,31.64
2022-08-02T14:50:38.043Z,31.70
2022-08-02T14:52:55.992Z,31.54
2022-08-02T14:55:17.158Z,31.50
2022-08-02T14:57:34.594Z,31.58
2022-08-02T14:59:51.872Z,31.61
2022-08-02T15:02:13.694Z,31.63
2022-08-02T15:04:39.178Z,31.59
2022-08-02T15:07:00.541Z,31.53
2022-08-02T15:09:17.772Z,31.52
2022-08-02T15:11:47.594Z,31.52
2022-08-02T15:14:05.480Z,31.40
2022-08-02T15:16:32.757Z,31.39
2022-08-02T15:18:59.676Z,31.32
2022-08-02T15:21:40.209Z,30.99
2022-08-02T15:23:53.520Z,31.05
2022-08-02T15:26:10.527Z,30.85
2022-08-02T15:28:27.789Z,30.83
2022-08-02T15:30:44.764Z,30.60
2022-08-02T15:33:01.795Z,30.49
2022-08-02T15:35:19.089Z,30.02
2022-08-02T15:37:40.976Z,29.96
2022-08-02T15:39:58.373Z,30.00
2022-08-02T15:42:17.070Z,30.06
2022-08-02T15:44:34.380Z,30.01
2022-08-02T15:46:51.623Z,30.11
2022-08-02T15:49:11.132Z,29.94
2022-08-02T15:51:28.179Z,30.11
2022-08-02T15:53:45.157Z,29.98
2022-08-02T15:56:12.811Z,29.87
2022-08-02T15:58:30.107Z,29.92
2022-08-02T16:00:48.034Z,29.62
2022-08-02T16:03:04.963Z,29.80
2022-08-02T16:05:22.006Z,29.73
2022-08-02T16:07:41.191Z,29.85
2022-08-02T16:09:58.585Z,29.81
2022-08-02T16:12:16.183Z,29.86
2022-08-02T16:14:34.230Z,29.92
2022-08-02T16:16:51.264Z,29.81
2022-08-02T16:19:46.973Z,29.76
2022-08-02T16:21:46.863Z,29.79
2022-08-02T16:24:04.897Z,29.67
2022-08-02T16:26:22.141Z,29.59
2022-08-02T16:28:40.438Z,29.64
2022-08-02T16:31:10.438Z,29.68
2022-08-02T16:33:28.685Z,29.66
2022-08-02T16:35:47.829Z,29.47
2022-08-02T16:38:05.301Z,29.56
2022-08-02T16:40:22.346Z,29.45
2022-08-02T16:42:39.263Z,29.44
2022-08-02T16:45:07.473Z,29.41
2022-08-02T16:47:37.003Z,29.36
2022-08-02T16:50:05.021Z,29.35
2022-08-02T16:52:26.785Z,29.26
2022-08-02T16:54:44.036Z,29.20
2022-08-02T16:57:00.958Z,29.26
2022-08-02T16:59:20.772Z,29.25
2022-08-02T17:02:11.984Z,29.20
2022-08-02T17:04:21.064Z,29.19
2022-08-02T17:06:39.830Z,29.24
2022-08-02T17:09:04.992Z,29.24
2022-08-02T17:11:23.848Z,29.14
2022-08-02T17:13:41.857Z,29.12
2022-08-02T17:16:16.001Z,29.16
2022-08-02T17:18:42.648Z,29.15
2022-08-02T17:20:59.933Z,29.19
2022-08-02T17:23:18.173Z,29.28
2022-08-02T17:25:41.796Z,29.24
2022-08-02T17:27:59.356Z,29.29
2022-08-02T17:30:16.659Z,29.34
2022-08-02T17:32:45.410Z,29.41
2022-08-02T17:35:21.723Z,29.32
2022-08-02T17:37:41.748Z,29.31
2022-08-02T17:39:58.964Z,29.21
2022-08-02T17:42:19.690Z,29.15
2022-08-02T17:44:38.485Z,29.11
2022-08-02T17:46:55.659Z,29.01
2022-08-02T17:49:12.807Z,28.93
2022-08-02T17:52:14.742Z,28.82
2022-08-02T17:54:07.342Z,28.72
2022-08-02T17:56:26.824Z,28.63
2022-08-02T17:58:53.932Z,28.56
2022-08-02T18:01:23.766Z,28.54
2022-08-02T18:03:42.949Z,28.45
2022-08-02T18:06:00.416Z,28.46
2022-08-02T18:08:18.462Z,28.36
2022-08-02T18:10:38.993Z,28.35
2022-08-02T18:12:56.035Z,28.21
2022-08-02T18:15:14.729Z,28.17
2022-08-02T18:17:31.925Z,28.06
2022-08-02T18:19:57.485Z,27.95
2022-08-02T18:22:20.446Z,27.82
2022-08-02T18:24:42.330Z,27.68
2022-08-02T18:27:02.198Z,27.48
2022-08-02T18:29:19.263Z,27.33
2022-08-02T18:31:39.469Z,27.33
2022-08-02T18:34:02.096Z,27.15
2022-08-02T18:36:24.635Z,26.97
2022-08-02T18:38:42.648Z,26.78
2022-08-02T18:41:03.038Z,26.58
2022-08-02T18:43:25.651Z,26.45
2022-08-02T18:46:06.607Z,26.30
2022-08-02T18:48:33.285Z,26.16
2022-08-02T18:50:50.382Z,25.98
2022-08-02T18:53:07.408Z,25.84
2022-08-02T18:55:59.612Z,25.69
2022-08-02T18:58:19.835Z,25.54
2022-08-02T19:00:37.469Z,25.41
2022-08-02T19:02:54.920Z,25.29
2022-08-02T19:05:13.012Z,25.16
2022-08-02T19:07:49.894Z,25.05
2022-08-02T19:10:08.543Z,24.95
2022-08-02T19:12:28.465Z,24.81
2022-08-02T19:14:45.890Z,24.71
2022-08-02T19:17:15.707Z,24.58
2022-08-02T19:19:42.655Z,24.48
2022-08-02T19:22:26.954Z,24.39
2022-08-02T19:24:37.723Z,24.29
2022-08-02T19:26:59.900Z,24.17
2022-08-02T19:29:42.612Z,24.08
2022-08-02T19:32:06.486Z,24.01
2022-08-02T19:34:43.524Z,23.90
2022-08-02T19:37:01.000Z,23.78
2022-08-02T19:39:19.784Z,23.69
2022-08-02T19:44:24.133Z,23.51
2022-08-02T19:46:49.195Z,23.39
2022-08-02T19:49:20.337Z,23.34
2022-08-02T19:51:54.998Z,23.21
2022-08-02T19:54:12.882Z,23.11
2022-08-02T19:56:30.273Z,23.04
2022-08-02T19:58:48.443Z,22.97
2022-08-02T20:01:05.433Z,22.93
2022-08-02T20:03:51.969Z,22.86
2022-08-02T20:06:00.130Z,22.77
2022-08-02T20:08:31.557Z,22.71
2022-08-02T20:10:52.955Z,22.64
2022-08-02T20:13:10.324Z,22.57
2022-08-02T20:15:56.586Z,22.51
2022-08-02T20:18:05.667Z,22.47
2022-08-02T20:20:22.986Z,22.39
2022-08-02T20:22:47.825Z,22.28
2022-08-02T20:25:09.454Z,22.23
2022-08-02T20:27:30.145Z,22.17
2022-08-02T20:29:48.656Z,22.08
2022-08-02T20:32:08.017Z,22.02
2022-08-02T20:34:26.405Z,21.98
2022-08-02T20:36:43.656Z,21.93
2022-08-02T20:39:10.899Z,21.89
2022-08-02T20:41:36.875Z,21.81
2022-08-02T20:44:03.173Z,21.74
2022-08-02T20:46:21.103Z,21.68
2022-08-02T20:48:40.521Z,21.64
2022-08-02T20:50:59.146Z,21.58
2022-08-02T20:53:23.486Z,21.53
2022-08-02T20:55:44.142Z,21.45
2022-08-02T20:58:02.521Z,21.37
2022-08-02T21:00:20.669Z,21.31
2022-08-02T21:02:38.064Z,21.26
2022-08-02T21:04:57.167Z,21.19
2022-08-02T21:07:17.922Z,21.10
2022-08-02T21:09:52.879Z,21.05
2022-08-02T21:12:12.500Z,21.02
2022-08-02T21:14:30.117Z,20.99
2022-08-02T21:16:47.176Z,20.96
2022-08-02T21:19:08.114Z,20.96
2022-08-02T21:21:27.127Z,20.90
2022-08-02T21:23:48.893Z,20.83
2022-08-02T21:26:11.587Z,20.78
2022-08-02T21:28:43.328Z,20.73
2022-08-02T21:31:00.937Z,20.65
2022-08-02T21:33:23.653Z,20.58
2022-08-02T21:35:41.143Z,20.55
2022-08-02T21:37:58.446Z,20.48
2022-08-02T21:40:15.444Z,20.42
2022-08-02T21:42:32.398Z,20.37
2022-08-02T21:44:50.728Z,20.30
2022-08-02T21:47:09.183Z,20.25
2022-08-02T21:49:40.650Z,20.22
2022-08-02T21:52:03.072Z,20.14
2022-08-02T21:54:21.296Z,20.09
2022-08-02T21:56:38.634Z,20.08
2022-08-02T21:58:57.360Z,20.03
2022-08-02T22:01:14.421Z,19.99
2022-08-02T22:03:31.507Z,19.94
2022-08-02T22:05:50.239Z,19.88
2022-08-02T22:08:08.072Z,19.86
2022-08-02T22:10:27.639Z,19.81
2022-08-02T22:12:44.939Z,19.79
2022-08-02T22:15:02.388Z,19.76
2022-08-02T22:17:20.809Z,19.69
2022-08-02T22:19:38.256Z,19.65
2022-08-02T22:21:56.363Z,19.60
2022-08-02T22:24:19.588Z,19.56
2022-08-02T22:26:47.311Z,19.54
2022-08-02T22:29:05.286Z,19.49
2022-08-02T22:31:40.470Z,19.49
2022-08-02T22:34:01.693Z,19.43
2022-08-02T22:36:20.829Z,19.35
2022-08-02T22:38:45.390Z,19.29
2022-08-02T22:41:03.617Z,19.24
2022-08-02T22:43:23.084Z,19.22
2022-08-02T22:45:40.840Z,19.19
2022-08-02T22:47:58.291Z,19.13
2022-08-02T22:50:15.846Z,19.12
2022-08-02T22:52:33.116Z,19.09
2022-08-02T22:54:50.950Z,19.08
2022-08-02T22:57:11.521Z,19.10
2022-08-02T22:58:52.679Z,23.61
2022-08-02T22:59:38.827Z,19.05
2022-08-02T23:01:56.660Z,18.97
2022-08-02T23:04:13.826Z,18.92
2022-08-02T23:06:31.035Z,18.87
2022-08-02T23:08:49.057Z,18.81
2022-08-02T23:11:06.041Z,18.79
2022-08-02T23:13:28.289Z,18.73
2022-08-02T23:15:45.856Z,18.71
2022-08-02T23:18:02.927Z,18.62
2022-08-02T23:20:20.210Z,18.63
2022-08-02T23:22:37.238Z,18.60
2022-08-02T23:24:54.277Z,18.57
2022-08-02T23:27:11.320Z,18.57
2022-08-02T23:29:28.696Z,18.52
2022-08-02T23:31:45.777Z,18.48
2022-08-02T23:34:04.925Z,18.41
